»·PEaware :: ASA515 KRNO-KPDX

ASA515 :: KRNO-KPDX

FLIGHT INFORMATION

Flight Status: Arrived
Operator:
Alaska Airlines
More flights by this operator :: More flights under this callsign
Pilot: Doug L. (8712)
Aircraft: MCDONNELL-DOUGLAS MD-80
(MD80)
More flights by this aircraft type
Origin: KRNO Reno/Tahoe Intl
United States
Destination: KPDX Portland Intl
United States
More flights between these airports :: More routes between these airports
Route: +FMG8 FMG WNDEL SOERN TMBRS2
File this flight plan on PilotEdge
Remarks:
Altitude:
(Current/Filed)
34,000ft
Speed:
(Current/Filed)
430kts
Departed: 13-Jan-19 09:10 AM
Arrived: 13-Jan-19 10:31 AM
Distance/Time
Traveled:
386nm/1:21
Distance/Time
To Go:
Arrived

Flight Plot

Page will automatically refresh every two minutes.

Flight plan parsing failed; only flown route is shown


Map Options




Map Legend


Flown Route
Filed Route
Departure Airport
Arrival Airport
Navaid (VOR, NDB)
Fix

Horizontal Profiles

Position Reports

Time Latitude Longitude Heading Altitude Ground
Speed
13-Jan-19 08:50 39.507224 -119.772263 263 4424ft 0kts
13-Jan-19 08:52 39.507224 -119.772263 263 4424ft 0kts
13-Jan-19 08:53 39.507224 -119.772263 263 4424ft 0kts
13-Jan-19 08:54 39.507224 -119.772263 263 4424ft 0kts
13-Jan-19 08:55 39.507224 -119.772263 263 4424ft 0kts
13-Jan-19 08:56 39.507224 -119.772263 263 4424ft 0kts
13-Jan-19 08:57 39.507224 -119.772263 263 4424ft 0kts
13-Jan-19 08:58 39.507224 -119.772263 263 4424ft 0kts
13-Jan-19 08:59 39.507224 -119.772263 263 4424ft 0kts
13-Jan-19 09:00 39.507224 -119.772263 263 4424ft 0kts
13-Jan-19 09:01 39.507224 -119.772263 263 4424ft 0kts
13-Jan-19 09:02 39.507224 -119.772263 263 4424ft 0kts
13-Jan-19 09:03 39.507224 -119.772263 263 4424ft 0kts
13-Jan-19 09:04 39.507147 -119.771635 312 4424ft 2kts
13-Jan-19 09:05 39.506862 -119.771511 0 4424ft 0kts
13-Jan-19 09:06 39.506862 -119.771511 0 4424ft 0kts
13-Jan-19 09:07 39.506943 -119.771511 0 4424ft 5kts
13-Jan-19 09:08 39.512686 -119.771407 0 4424ft 17kts
13-Jan-19 09:09 39.513727 -119.769675 93 4424ft 11kts
13-Jan-19 09:10 39.495359 -119.769319 179 4426ft 166kts
13-Jan-19 09:11 39.439716 -119.767831 177 6708ft 221kts
13-Jan-19 09:12 39.383280 -119.738968 124 9880ft 240kts
13-Jan-19 09:13 39.404846 -119.662727 24 12831ft 288kts
13-Jan-19 09:14 39.488758 -119.652023 9 15808ft 313kts
13-Jan-19 09:14 39.561707 -119.662912 334 18089ft 341kts
13-Jan-19 09:15 39.640822 -119.736917 328 20486ft 357kts
13-Jan-19 09:16 39.726082 -119.805655 334 22679ft 365kts
13-Jan-19 09:17 39.815545 -119.872527 333 24653ft 375kts
13-Jan-19 09:18 39.906183 -119.941861 332 26500ft 382kts
13-Jan-19 09:19 39.998520 -120.012368 332 28127ft 388kts
13-Jan-19 09:20 40.092381 -120.083975 332 29436ft 393kts
13-Jan-19 09:21 40.188674 -120.157250 332 29668ft 422kts
13-Jan-19 09:22 40.294804 -120.239007 332 29671ft 447kts
13-Jan-19 09:23 40.401568 -120.321220 333 30596ft 443kts
13-Jan-19 09:24 40.513585 -120.387174 340 31299ft 441kts
13-Jan-19 09:25 40.627556 -120.448118 339 31799ft 444kts
13-Jan-19 09:26 40.742319 -120.513361 337 32069ft 450kts
13-Jan-19 09:27 40.857699 -120.579514 338 32238ft 453kts
13-Jan-19 09:28 40.973496 -120.645542 338 32232ft 454kts
13-Jan-19 09:29 41.089116 -120.712115 338 32227ft 454kts
13-Jan-19 09:30 41.205164 -120.779290 338 32226ft 454kts
13-Jan-19 09:31 41.321455 -120.846046 338 32227ft 455kts
13-Jan-19 09:32 41.437397 -120.913328 338 32226ft 456kts
13-Jan-19 09:33 41.553638 -120.980974 338 32224ft 456kts
13-Jan-19 09:34 41.669553 -121.048329 338 32222ft 456kts
13-Jan-19 09:35 41.786205 -121.116873 338 32221ft 456kts
13-Jan-19 09:36 41.902258 -121.185873 337 32220ft 457kts
13-Jan-19 09:37 42.018772 -121.254459 338 32222ft 457kts
13-Jan-19 09:38 42.135461 -121.323664 337 32221ft 458kts
13-Jan-19 09:39 42.252367 -121.393786 337 32219ft 459kts
13-Jan-19 09:40 42.369210 -121.463930 338 32219ft 459kts
13-Jan-19 09:41 42.486196 -121.533522 337 32218ft 459kts
13-Jan-19 09:42 42.602930 -121.603648 337 32218ft 458kts
13-Jan-19 09:43 42.720054 -121.672574 340 32230ft 459kts
13-Jan-19 09:44 42.838660 -121.737407 337 32223ft 459kts
13-Jan-19 09:45 42.953985 -121.812254 334 32217ft 460kts
13-Jan-19 09:46 43.067125 -121.893673 330 32221ft 461kts
13-Jan-19 09:47 43.176910 -121.983985 330 32222ft 459kts
13-Jan-19 09:48 43.288197 -122.070485 331 32234ft 459kts
13-Jan-19 09:49 43.399389 -122.157534 330 32239ft 460kts
13-Jan-19 09:50 43.510696 -122.244821 331 32240ft 460kts
13-Jan-19 09:51 43.622082 -122.332081 331 32239ft 460kts
13-Jan-19 09:52 43.733180 -122.419035 331 32237ft 460kts
13-Jan-19 09:53 43.844111 -122.507302 330 32234ft 460kts
13-Jan-19 09:54 43.954960 -122.595427 330 32036ft 453kts
13-Jan-19 09:55 44.062273 -122.683313 330 30267ft 450kts
13-Jan-19 09:56 44.174404 -122.755103 353 28577ft 441kts
13-Jan-19 09:57 44.295321 -122.748901 9 26941ft 432kts
13-Jan-19 09:58 44.414335 -122.729880 7 25421ft 427kts
13-Jan-19 09:59 44.532233 -122.716327 6 22786ft 422kts
13-Jan-19 10:00 44.640891 -122.706068 6 21286ft 396kts
13-Jan-19 10:01 44.750915 -122.695234 6 18480ft 385kts
13-Jan-19 10:02 44.853055 -122.685133 6 16170ft 352kts
13-Jan-19 10:03 44.948079 -122.676191 5 14023ft 336kts
13-Jan-19 10:04 45.040653 -122.667648 4 12323ft 331kts
13-Jan-19 10:05 45.128637 -122.659471 6 10601ft 305kts
13-Jan-19 10:06 45.211780 -122.649588 7 8901ft 294kts
13-Jan-19 10:07 45.291042 -122.658482 340 7375ft 288kts
13-Jan-19 10:08 45.363218 -122.703797 339 6113ft 284kts
13-Jan-19 10:09 45.432824 -122.745057 341 5634ft 260kts
13-Jan-19 10:10 45.499617 -122.781934 341 5035ft 255kts
13-Jan-19 10:11 45.565469 -122.817953 341 5000ft 251kts
13-Jan-19 10:12 45.608449 -122.889765 296 5007ft 237kts
13-Jan-19 10:13 45.645975 -122.966246 319 5010ft 237kts
13-Jan-19 10:14 45.698047 -123.023963 348 3973ft 237kts
13-Jan-19 10:15 45.726377 -122.965607 104 3031ft 207kts
13-Jan-19 10:16 45.701600 -122.892803 118 3012ft 201kts
13-Jan-19 10:17 45.673901 -122.822819 119 2992ft 192kts
13-Jan-19 10:18 45.647188 -122.755692 119 2415ft 187kts
13-Jan-19 10:19 45.624544 -122.697276 118 1074ft 161kts
13-Jan-19 10:20 45.603020 -122.641173 121 369ft 154kts
13-Jan-19 10:21 45.580395 -122.582743 116 1092ft 196kts
13-Jan-19 10:22 45.542940 -122.513730 141 2533ft 212kts
13-Jan-19 10:23 45.514988 -122.556933 273 4990ft 224kts
13-Jan-19 10:24 45.522885 -122.658022 275 4985ft 243kts
13-Jan-19 10:25 45.547024 -122.737491 306 4190ft 237kts
13-Jan-19 10:26 45.595545 -122.778964 19 2449ft 194kts
13-Jan-19 10:27 45.628034 -122.733571 86 1759ft 161kts
13-Jan-19 10:28 45.614072 -122.670951 115 771ft 164kts
13-Jan-19 10:29 45.592339 -122.614220 118 40ft 142kts
13-Jan-19 10:30 45.586819 -122.597124 28 39ft 3kts
13-Jan-19 10:31 45.588038 -122.596715 27 39ft 9kts
13-Jan-19 10:32 45.588327 -122.596385 42 39ft 0kts

Navigation Log

Ident Type
Flight plan parsing failed, navigation log unavailable